sensor_id;sensor_type;location;lat;lon;timestamp;P1;durP1;ratioP1;P2;durP2;ratioP2
29550;SDS011;16488;52.396;10.696;2023-03-01T00:01:12;12.48;;;7.30;;
29550;SDS011;16488;52.396;10.696;2023-03-01T00:03:38;16.33;;;7.18;;
29550;SDS011;16488;52.396;10.696;2023-03-01T00:06:05;11.98;;;6.60;;
29550;SDS011;16488;52.396;10.696;2023-03-01T00:08:31;15.68;;;7.93;;
29550;SDS011;16488;52.396;10.696;2023-03-01T00:11:08;14.85;;;7.75;;
29550;SDS011;16488;52.396;10.696;2023-03-01T00:13:35;16.08;;;7.05;;
29550;SDS011;16488;52.396;10.696;2023-03-01T00:16:06;17.95;;;7.30;;
29550;SDS011;16488;52.396;10.696;2023-03-01T00:18:32;13.32;;;7.13;;
29550;SDS011;16488;52.396;10.696;2023-03-01T00:20:59;19.70;;;10.48;;
29550;SDS011;16488;52.396;10.696;2023-03-01T00:23:25;20.92;;;8.60;;
29550;SDS011;16488;52.396;10.696;2023-03-01T00:25:51;16.38;;;7.65;;
29550;SDS011;16488;52.396;10.696;2023-03-01T00:28:17;13.90;;;7.72;;
29550;SDS011;16488;52.396;10.696;2023-03-01T00:30:44;11.27;;;6.68;;
29550;SDS011;16488;52.396;10.696;2023-03-01T00:33:10;13.77;;;7.82;;
29550;SDS011;16488;52.396;10.696;2023-03-01T00:35:36;16.02;;;7.10;;
29550;SDS011;16488;52.396;10.696;2023-03-01T00:38:02;13.27;;;7.75;;
29550;SDS011;16488;52.396;10.696;2023-03-01T00:40:29;12.05;;;7.25;;
29550;SDS011;16488;52.396;10.696;2023-03-01T00:42:55;17.08;;;8.07;;
29550;SDS011;16488;52.396;10.696;2023-03-01T00:45:21;16.25;;;7.47;;
29550;SDS011;16488;52.396;10.696;2023-03-01T00:47:48;13.80;;;7.85;;
29550;SDS011;16488;52.396;10.696;2023-03-01T00:50:14;12.52;;;6.88;;
29550;SDS011;16488;52.396;10.696;2023-03-01T00:52:40;15.95;;;7.97;;
29550;SDS011;16488;52.396;10.696;2023-03-01T00:55:06;13.93;;;7.70;;
29550;SDS011;16488;52.396;10.696;2023-03-01T00:57:32;14.93;;;8.25;;
29550;SDS011;16488;52.396;10.696;2023-03-01T00:59:58;17.65;;;8.50;;
29550;SDS011;16488;52.396;10.696;2023-03-01T01:02:24;16.50;;;8.32;;
29550;SDS011;16488;52.396;10.696;2023-03-01T01:04:51;13.30;;;7.10;;
29550;SDS011;16488;52.396;10.696;2023-03-01T01:09:45;14.07;;;7.57;;
29550;SDS011;16488;52.396;10.696;2023-03-01T01:12:11;13.98;;;7.28;;
29550;SDS011;16488;52.396;10.696;2023-03-01T01:14:38;20.15;;;7.28;;
29550;SDS011;16488;52.396;10.696;2023-03-01T01:17:04;16.00;;;8.52;;
29550;SDS011;16488;52.396;10.696;2023-03-01T01:19:30;15.90;;;7.63;;
29550;SDS011;16488;52.396;10.696;2023-03-01T01:21:56;14.60;;;7.07;;
29550;SDS011;16488;52.396;10.696;2023-03-01T01:26:48;16.57;;;7.47;;
29550;SDS011;16488;52.396;10.696;2023-03-01T01:29:14;18.60;;;7.95;;
29550;SDS011;16488;52.396;10.696;2023-03-01T01:31:41;17.30;;;9.05;;
29550;SDS011;16488;52.396;10.696;2023-03-01T01:34:08;17.35;;;8.20;;
29550;SDS011;16488;52.396;10.696;2023-03-01T01:36:37;18.30;;;8.25;;
29550;SDS011;16488;52.396;10.696;2023-03-01T01:39:03;12.65;;;6.85;;
29550;SDS011;16488;52.396;10.696;2023-03-01T01:41:29;17.92;;;8.15;;
29550;SDS011;16488;52.396;10.696;2023-03-01T01:46:58;19.98;;;9.75;;
29550;SDS011;16488;52.396;10.696;2023-03-01T01:54:34;16.75;;;8.32;;
29550;SDS011;16488;52.396;10.696;2023-03-01T01:57:02;18.00;;;8.00;;
29550;SDS011;16488;52.396;10.696;2023-03-01T01:59:29;16.50;;;7.93;;
29550;SDS011;16488;52.396;10.696;2023-03-01T02:01:56;21.17;;;9.07;;
29550;SDS011;16488;52.396;10.696;2023-03-01T02:04:25;18.05;;;7.47;;
29550;SDS011;16488;52.396;10.696;2023-03-01T02:06:55;21.92;;;8.80;;
29550;SDS011;16488;52.396;10.696;2023-03-01T02:09:23;16.67;;;8.18;;
29550;SDS011;16488;52.396;10.696;2023-03-01T02:14:15;15.25;;;8.18;;
29550;SDS011;16488;52.396;10.696;2023-03-01T02:16:41;15.00;;;7.32;;
29550;SDS011;16488;52.396;10.696;2023-03-01T02:19:08;13.60;;;7.55;;
29550;SDS011;16488;52.396;10.696;2023-03-01T02:24:30;14.57;;;8.15;;
29550;SDS011;16488;52.396;10.696;2023-03-01T02:26:53;12.80;;;7.63;;
29550;SDS011;16488;52.396;10.696;2023-03-01T02:29:20;15.18;;;7.80;;
29550;SDS011;16488;52.396;10.696;2023-03-01T02:31:47;15.18;;;7.13;;
29550;SDS011;16488;52.396;10.696;2023-03-01T02:34:17;15.88;;;7.82;;
29550;SDS011;16488;52.396;10.696;2023-03-01T02:36:44;19.52;;;8.07;;
29550;SDS011;16488;52.396;10.696;2023-03-01T02:39:12;13.73;;;7.97;;
29550;SDS011;16488;52.396;10.696;2023-03-01T02:41:42;16.98;;;8.02;;
29550;SDS011;16488;52.396;10.696;2023-03-01T02:44:09;18.75;;;8.57;;
29550;SDS011;16488;52.396;10.696;2023-03-01T02:46:41;22.83;;;9.95;;
29550;SDS011;16488;52.396;10.696;2023-03-01T02:49:18;14.95;;;7.32;;
29550;SDS011;16488;52.396;10.696;2023-03-01T02:51:52;13.85;;;7.50;;
29550;SDS011;16488;52.396;10.696;2023-03-01T02:59:14;12.75;;;8.63;;
29550;SDS011;16488;52.396;10.696;2023-03-01T03:01:41;18.73;;;7.68;;
29550;SDS011;16488;52.396;10.696;2023-03-01T03:06:33;18.77;;;7.67;;
29550;SDS011;16488;52.396;10.696;2023-03-01T03:08:59;14.00;;;7.68;;
29550;SDS011;16488;52.396;10.696;2023-03-01T03:11:26;14.02;;;7.80;;
29550;SDS011;16488;52.396;10.696;2023-03-01T03:13:52;19.42;;;7.53;;
29550;SDS011;16488;52.396;10.696;2023-03-01T03:16:18;21.67;;;7.97;;
29550;SDS011;16488;52.396;10.696;2023-03-01T03:18:44;15.75;;;8.30;;
29550;SDS011;16488;52.396;10.696;2023-03-01T03:21:11;15.00;;;7.90;;
29550;SDS011;16488;52.396;10.696;2023-03-01T03:23:37;19.00;;;8.73;;
29550;SDS011;16488;52.396;10.696;2023-03-01T03:26:04;25.40;;;9.30;;
29550;SDS011;16488;52.396;10.696;2023-03-01T03:28:31;17.88;;;9.13;;
29550;SDS011;16488;52.396;10.696;2023-03-01T03:30:57;16.65;;;9.02;;
29550;SDS011;16488;52.396;10.696;2023-03-01T03:33:23;26.20;;;10.48;;
29550;SDS011;16488;52.396;10.696;2023-03-01T03:35:50;19.80;;;9.00;;
29550;SDS011;16488;52.396;10.696;2023-03-01T03:38:17;18.55;;;8.75;;
29550;SDS011;16488;52.396;10.696;2023-03-01T03:43:11;17.73;;;9.13;;
29550;SDS011;16488;52.396;10.696;2023-03-01T03:45:37;19.77;;;9.68;;
29550;SDS011;16488;52.396;10.696;2023-03-01T03:48:03;19.23;;;10.30;;
29550;SDS011;16488;52.396;10.696;2023-03-01T03:50:30;19.92;;;9.75;;
29550;SDS011;16488;52.396;10.696;2023-03-01T03:52:56;18.83;;;10.40;;
29550;SDS011;16488;52.396;10.696;2023-03-01T03:55:22;22.48;;;9.32;;
29550;SDS011;16488;52.396;10.696;2023-03-01T03:57:52;18.23;;;10.40;;
29550;SDS011;16488;52.396;10.696;2023-03-01T04:00:20;19.80;;;10.48;;
29550;SDS011;16488;52.396;10.696;2023-03-01T04:02:46;23.33;;;10.93;;
29550;SDS011;16488;52.396;10.696;2023-03-01T04:05:14;25.63;;;11.00;;
29550;SDS011;16488;52.396;10.696;2023-03-01T04:07:41;20.88;;;11.43;;
29550;SDS011;16488;52.396;10.696;2023-03-01T04:10:08;23.38;;;12.25;;
29550;SDS011;16488;52.396;10.696;2023-03-01T04:12:35;34.70;;;12.68;;
29550;SDS011;16488;52.396;10.696;2023-03-01T04:15:02;26.52;;;12.07;;
29550;SDS011;16488;52.396;10.696;2023-03-01T04:20:04;19.95;;;10.77;;
29550;SDS011;16488;52.396;10.696;2023-03-01T04:22:30;36.40;;;12.85;;
29550;SDS011;16488;52.396;10.696;2023-03-01T04:24:56;26.88;;;12.77;;
29550;SDS011;16488;52.396;10.696;2023-03-01T04:27:23;23.77;;;11.35;;
29550;SDS011;16488;52.396;10.696;2023-03-01T04:29:49;22.45;;;12.50;;
29550;SDS011;16488;52.396;10.696;2023-03-01T04:32:15;23.52;;;11.35;;
29550;SDS011;16488;52.396;10.696;2023-03-01T04:34:41;25.25;;;11.95;;
29550;SDS011;16488;52.396;10.696;2023-03-01T04:37:07;27.50;;;11.95;;
29550;SDS011;16488;52.396;10.696;2023-03-01T04:39:33;22.10;;;10.52;;
29550;SDS011;16488;52.396;10.696;2023-03-01T04:42:10;23.17;;;12.32;;
29550;SDS011;16488;52.396;10.696;2023-03-01T04:44:36;22.10;;;13.02;;
29550;SDS011;16488;52.396;10.696;2023-03-01T04:47:02;29.05;;;11.77;;
29550;SDS011;16488;52.396;10.696;2023-03-01T04:49:28;21.45;;;11.13;;
29550;SDS011;16488;52.396;10.696;2023-03-01T04:51:54;23.75;;;11.50;;
29550;SDS011;16488;52.396;10.696;2023-03-01T04:54:23;23.67;;;13.45;;
29550;SDS011;16488;52.396;10.696;2023-03-01T04:56:49;27.70;;;11.05;;
29550;SDS011;16488;52.396;10.696;2023-03-01T04:59:15;22.45;;;11.43;;
29550;SDS011;16488;52.396;10.696;2023-03-01T05:01:41;22.83;;;11.88;;
29550;SDS011;16488;52.396;10.696;2023-03-01T05:04:07;26.20;;;12.60;;
29550;SDS011;16488;52.396;10.696;2023-03-01T05:06:38;27.45;;;12.68;;
29550;SDS011;16488;52.396;10.696;2023-03-01T05:09:04;30.25;;;12.00;;
29550;SDS011;16488;52.396;10.696;2023-03-01T05:11:30;21.52;;;10.48;;
29550;SDS011;16488;52.396;10.696;2023-03-01T05:14:07;23.33;;;11.48;;
29550;SDS011;16488;52.396;10.696;2023-03-01T05:16:33;28.15;;;12.05;;
29550;SDS011;16488;52.396;10.696;2023-03-01T05:18:59;45.13;;;17.95;;
29550;SDS011;16488;52.396;10.696;2023-03-01T05:21:25;62.33;;;23.02;;
29550;SDS011;16488;52.396;10.696;2023-03-01T05:23:51;41.15;;;17.63;;
29550;SDS011;16488;52.396;10.696;2023-03-01T05:26:19;23.58;;;14.43;;
29550;SDS011;16488;52.396;10.696;2023-03-01T05:28:46;24.42;;;12.55;;
29550;SDS011;16488;52.396;10.696;2023-03-01T05:31:13;31.90;;;13.55;;
29550;SDS011;16488;52.396;10.696;2023-03-01T05:33:39;25.33;;;12.52;;
29550;SDS011;16488;52.396;10.696;2023-03-01T05:36:08;30.08;;;13.40;;
29550;SDS011;16488;52.396;10.696;2023-03-01T05:38:35;26.98;;;13.23;;
29550;SDS011;16488;52.396;10.696;2023-03-01T05:41:01;29.38;;;13.13;;
29550;SDS011;16488;52.396;10.696;2023-03-01T05:43:29;21.83;;;11.93;;
29550;SDS011;16488;52.396;10.696;2023-03-01T05:45:58;27.38;;;12.45;;
29550;SDS011;16488;52.396;10.696;2023-03-01T05:48:24;22.73;;;11.60;;
29550;SDS011;16488;52.396;10.696;2023-03-01T05:50:51;30.95;;;14.95;;
29550;SDS011;16488;52.396;10.696;2023-03-01T05:53:18;28.75;;;12.65;;
29550;SDS011;16488;52.396;10.696;2023-03-01T05:55:46;27.40;;;13.20;;
29550;SDS011;16488;52.396;10.696;2023-03-01T05:58:16;27.05;;;12.50;;
29550;SDS011;16488;52.396;10.696;2023-03-01T06:00:42;20.02;;;11.13;;
29550;SDS011;16488;52.396;10.696;2023-03-01T06:03:09;29.88;;;12.85;;
29550;SDS011;16488;52.396;10.696;2023-03-01T06:05:36;22.92;;;12.65;;
29550;SDS011;16488;52.396;10.696;2023-03-01T06:08:02;26.10;;;12.82;;
29550;SDS011;16488;52.396;10.696;2023-03-01T06:10:28;23.25;;;11.65;;
29550;SDS011;16488;52.396;10.696;2023-03-01T06:12:54;26.90;;;12.13;;
29550;SDS011;16488;52.396;10.696;2023-03-01T06:15:21;32.50;;;14.63;;
29550;SDS011;16488;52.396;10.696;2023-03-01T06:17:47;28.67;;;14.20;;
29550;SDS011;16488;52.396;10.696;2023-03-01T06:20:14;34.22;;;14.10;;
29550;SDS011;16488;52.396;10.696;2023-03-01T06:22:41;25.67;;;11.32;;
29550;SDS011;16488;52.396;10.696;2023-03-01T06:25:08;21.52;;;10.73;;
29550;SDS011;16488;52.396;10.696;2023-03-01T06:27:35;22.77;;;11.63;;
29550;SDS011;16488;52.396;10.696;2023-03-01T06:30:01;21.50;;;11.35;;
29550;SDS011;16488;52.396;10.696;2023-03-01T06:32:27;20.52;;;10.93;;
29550;SDS011;16488;52.396;10.696;2023-03-01T06:34:53;26.92;;;10.98;;
29550;SDS011;16488;52.396;10.696;2023-03-01T06:37:19;22.27;;;11.98;;
29550;SDS011;16488;52.396;10.696;2023-03-01T06:39:45;25.63;;;12.30;;
29550;SDS011;16488;52.396;10.696;2023-03-01T06:42:11;25.73;;;13.35;;
29550;SDS011;16488;52.396;10.696;2023-03-01T06:44:37;24.15;;;11.38;;
29550;SDS011;16488;52.396;10.696;2023-03-01T06:47:04;28.60;;;12.73;;
29550;SDS011;16488;52.396;10.696;2023-03-01T06:49:30;27.38;;;15.20;;
29550;SDS011;16488;52.396;10.696;2023-03-01T06:51:56;30.63;;;14.50;;
29550;SDS011;16488;52.396;10.696;2023-03-01T06:54:22;29.95;;;16.65;;
29550;SDS011;16488;52.396;10.696;2023-03-01T06:56:49;28.90;;;15.90;;
29550;SDS011;16488;52.396;10.696;2023-03-01T06:59:15;35.90;;;16.60;;
29550;SDS011;16488;52.396;10.696;2023-03-01T07:01:42;35.55;;;16.65;;
29550;SDS011;16488;52.396;10.696;2023-03-01T07:04:08;28.45;;;15.60;;
29550;SDS011;16488;52.396;10.696;2023-03-01T07:06:34;32.65;;;16.17;;
29550;SDS011;16488;52.396;10.696;2023-03-01T07:11:26;40.97;;;19.57;;
29550;SDS011;16488;52.396;10.696;2023-03-01T07:13:52;34.47;;;18.30;;
29550;SDS011;16488;52.396;10.696;2023-03-01T07:16:20;58.58;;;22.52;;
29550;SDS011;16488;52.396;10.696;2023-03-01T07:21:12;55.27;;;23.40;;
29550;SDS011;16488;52.396;10.696;2023-03-01T07:23:39;56.75;;;28.00;;
29550;SDS011;16488;52.396;10.696;2023-03-01T07:26:05;57.80;;;27.33;;
29550;SDS011;16488;52.396;10.696;2023-03-01T07:28:31;53.78;;;25.63;;
29550;SDS011;16488;52.396;10.696;2023-03-01T07:31:04;47.50;;;22.35;;
29550;SDS011;16488;52.396;10.696;2023-03-01T07:33:30;39.58;;;20.17;;
29550;SDS011;16488;52.396;10.696;2023-03-01T07:38:22;30.50;;;15.02;;
29550;SDS011;16488;52.396;10.696;2023-03-01T07:40:48;25.08;;;14.13;;
29550;SDS011;16488;52.396;10.696;2023-03-01T07:43:14;30.75;;;15.05;;
29550;SDS011;16488;52.396;10.696;2023-03-01T07:45:41;24.10;;;13.10;;
29550;SDS011;16488;52.396;10.696;2023-03-01T07:48:07;27.90;;;14.25;;
29550;SDS011;16488;52.396;10.696;2023-03-01T07:50:33;25.80;;;14.65;;
29550;SDS011;16488;52.396;10.696;2023-03-01T07:52:59;25.85;;;13.88;;
29550;SDS011;16488;52.396;10.696;2023-03-01T07:55:25;23.77;;;13.65;;
29550;SDS011;16488;52.396;10.696;2023-03-01T07:57:51;22.88;;;14.02;;
29550;SDS011;16488;52.396;10.696;2023-03-01T08:02:43;25.63;;;13.68;;
29550;SDS011;16488;52.396;10.696;2023-03-01T08:07:35;23.48;;;13.43;;
29550;SDS011;16488;52.396;10.696;2023-03-01T08:12:27;25.87;;;13.53;;
29550;SDS011;16488;52.396;10.696;2023-03-01T08:17:19;29.88;;;15.73;;
29550;SDS011;16488;52.396;10.696;2023-03-01T08:22:11;30.02;;;15.18;;
29550;SDS011;16488;52.396;10.696;2023-03-01T08:24:37;29.23;;;15.43;;
29550;SDS011;16488;52.396;10.696;2023-03-01T08:29:32;33.63;;;16.52;;
29550;SDS011;16488;52.396;10.696;2023-03-01T08:31:58;33.55;;;17.60;;
29550;SDS011;16488;52.396;10.696;2023-03-01T08:34:25;40.08;;;18.55;;
29550;SDS011;16488;52.396;10.696;2023-03-01T08:36:51;40.22;;;20.45;;
29550;SDS011;16488;52.396;10.696;2023-03-01T08:39:17;37.50;;;19.17;;
29550;SDS011;16488;52.396;10.696;2023-03-01T08:41:44;38.53;;;18.25;;
29550;SDS011;16488;52.396;10.696;2023-03-01T08:44:11;21.83;;;12.18;;
29550;SDS011;16488;52.396;10.696;2023-03-01T08:46:38;25.88;;;12.65;;
29550;SDS011;16488;52.396;10.696;2023-03-01T08:49:12;33.22;;;11.88;;
29550;SDS011;16488;52.396;10.696;2023-03-01T08:51:39;15.13;;;7.35;;
29550;SDS011;16488;52.396;10.696;2023-03-01T08:56:31;9.82;;;6.30;;
29550;SDS011;16488;52.396;10.696;2023-03-01T09:01:23;16.33;;;6.30;;
29550;SDS011;16488;52.396;10.696;2023-03-01T09:03:49;15.10;;;6.20;;
29550;SDS011;16488;52.396;10.696;2023-03-01T09:06:17;12.32;;;7.15;;
29550;SDS011;16488;52.396;10.696;2023-03-01T09:08:45;13.57;;;6.35;;
29550;SDS011;16488;52.396;10.696;2023-03-01T09:11:12;16.17;;;6.38;;
29550;SDS011;16488;52.396;10.696;2023-03-01T09:13:40;11.15;;;5.55;;
29550;SDS011;16488;52.396;10.696;2023-03-01T09:18:32;9.73;;;5.55;;
29550;SDS011;16488;52.396;10.696;2023-03-01T09:23:31;10.00;;;5.68;;
29550;SDS011;16488;52.396;10.696;2023-03-01T09:25:58;10.38;;;5.70;;
29550;SDS011;16488;52.396;10.696;2023-03-01T09:28:24;9.73;;;4.85;;
29550;SDS011;16488;52.396;10.696;2023-03-01T09:30:50;14.63;;;5.57;;
29550;SDS011;16488;52.396;10.696;2023-03-01T09:33:16;11.68;;;5.00;;
29550;SDS011;16488;52.396;10.696;2023-03-01T09:35:42;10.93;;;5.75;;
29550;SDS011;16488;52.396;10.696;2023-03-01T09:38:12;15.95;;;6.75;;
29550;SDS011;16488;52.396;10.696;2023-03-01T09:40:42;14.48;;;5.38;;
29550;SDS011;16488;52.396;10.696;2023-03-01T09:43:15;9.63;;;5.47;;
29550;SDS011;16488;52.396;10.696;2023-03-01T09:45:45;10.57;;;5.55;;
29550;SDS011;16488;52.396;10.696;2023-03-01T09:48:16;9.55;;;5.30;;
29550;SDS011;16488;52.396;10.696;2023-03-01T09:50:42;7.63;;;4.90;;
29550;SDS011;16488;52.396;10.696;2023-03-01T09:53:16;11.65;;;5.68;;
29550;SDS011;16488;52.396;10.696;2023-03-01T09:55:46;12.82;;;6.03;;
29550;SDS011;16488;52.396;10.696;2023-03-01T09:58:25;7.93;;;5.10;;
29550;SDS011;16488;52.396;10.696;2023-03-01T10:00:53;14.85;;;5.95;;
29550;SDS011;16488;52.396;10.696;2023-03-01T10:08:28;11.68;;;6.72;;
29550;SDS011;16488;52.396;10.696;2023-03-01T10:10:56;11.07;;;5.68;;
29550;SDS011;16488;52.396;10.696;2023-03-01T10:18:19;9.75;;;4.25;;
29550;SDS011;16488;52.396;10.696;2023-03-01T10:20:54;9.93;;;5.35;;
29550;SDS011;16488;52.396;10.696;2023-03-01T10:23:22;16.73;;;5.13;;
29550;SDS011;16488;52.396;10.696;2023-03-01T10:28:43;8.15;;;4.65;;
29550;SDS011;16488;52.396;10.696;2023-03-01T10:31:15;9.95;;;5.15;;
29550;SDS011;16488;52.396;10.696;2023-03-01T10:33:42;7.53;;;4.30;;
29550;SDS011;16488;52.396;10.696;2023-03-01T10:36:08;7.75;;;4.53;;
29550;SDS011;16488;52.396;10.696;2023-03-01T10:38:48;13.60;;;4.07;;
29550;SDS011;16488;52.396;10.696;2023-03-01T10:41:14;7.63;;;4.10;;
29550;SDS011;16488;52.396;10.696;2023-03-01T10:43:45;6.93;;;3.67;;
29550;SDS011;16488;52.396;10.696;2023-03-01T10:49:05;7.70;;;3.90;;
29550;SDS011;16488;52.396;10.696;2023-03-01T10:51:31;6.93;;;4.50;;
29550;SDS011;16488;52.396;10.696;2023-03-01T10:53:57;10.10;;;4.10;;
29550;SDS011;16488;52.396;10.696;2023-03-01T10:56:23;9.23;;;4.75;;
29550;SDS011;16488;52.396;10.696;2023-03-01T10:58:58;8.05;;;4.18;;
29550;SDS011;16488;52.396;10.696;2023-03-01T11:01:25;6.97;;;4.10;;
29550;SDS011;16488;52.396;10.696;2023-03-01T11:06:33;7.80;;;3.92;;
29550;SDS011;16488;52.396;10.696;2023-03-01T11:11:41;8.13;;;4.30;;
29550;SDS011;16488;52.396;10.696;2023-03-01T11:16:37;8.40;;;4.13;;
29550;SDS011;16488;52.396;10.696;2023-03-01T11:19:14;6.43;;;3.50;;
29550;SDS011;16488;52.396;10.696;2023-03-01T11:21:42;9.85;;;4.35;;
29550;SDS011;16488;52.396;10.696;2023-03-01T11:24:10;8.05;;;3.92;;
29550;SDS011;16488;52.396;10.696;2023-03-01T11:26:39;7.60;;;4.25;;
29550;SDS011;16488;52.396;10.696;2023-03-01T11:29:10;8.93;;;4.15;;
29550;SDS011;16488;52.396;10.696;2023-03-01T11:31:38;6.30;;;4.00;;
29550;SDS011;16488;52.396;10.696;2023-03-01T11:34:08;10.55;;;4.38;;
29550;SDS011;16488;52.396;10.696;2023-03-01T11:36:41;9.35;;;4.03;;
29550;SDS011;16488;52.396;10.696;2023-03-01T11:39:53;7.20;;;3.85;;
29550;SDS011;16488;52.396;10.696;2023-03-01T11:44:54;9.05;;;4.43;;
29550;SDS011;16488;52.396;10.696;2023-03-01T11:52:37;7.20;;;4.20;;
29550;SDS011;16488;52.396;10.696;2023-03-01T11:57:55;7.47;;;5.05;;
29550;SDS011;16488;52.396;10.696;2023-03-01T12:00:30;10.00;;;4.35;;
29550;SDS011;16488;52.396;10.696;2023-03-01T12:03:15;7.65;;;4.28;;
29550;SDS011;16488;52.396;10.696;2023-03-01T12:08:33;6.13;;;3.88;;
29550;SDS011;16488;52.396;10.696;2023-03-01T12:13:55;7.63;;;4.18;;
29550;SDS011;16488;52.396;10.696;2023-03-01T12:24:26;9.23;;;3.83;;
29550;SDS011;16488;52.396;10.696;2023-03-01T12:29:47;8.18;;;4.05;;
29550;SDS011;16488;52.396;10.696;2023-03-01T12:35:05;7.45;;;3.88;;
29550;SDS011;16488;52.396;10.696;2023-03-01T12:37:42;6.75;;;4.43;;
29550;SDS011;16488;52.396;10.696;2023-03-01T12:40:18;7.18;;;3.83;;
29550;SDS011;16488;52.396;10.696;2023-03-01T12:50:58;6.88;;;3.75;;
29550;SDS011;16488;52.396;10.696;2023-03-01T12:53:26;6.70;;;3.67;;
29550;SDS011;16488;52.396;10.696;2023-03-01T12:56:16;7.75;;;4.00;;
29550;SDS011;16488;52.396;10.696;2023-03-01T13:08:55;5.97;;;4.35;;
29550;SDS011;16488;52.396;10.696;2023-03-01T13:11:25;7.30;;;3.53;;
29550;SDS011;16488;52.396;10.696;2023-03-01T13:13:51;6.45;;;3.15;;
29550;SDS011;16488;52.396;10.696;2023-03-01T13:16:40;6.93;;;3.75;;
29550;SDS011;16488;52.396;10.696;2023-03-01T13:19:15;5.18;;;2.55;;
29550;SDS011;16488;52.396;10.696;2023-03-01T13:21:41;9.85;;;3.20;;
29550;SDS011;16488;52.396;10.696;2023-03-01T13:24:24;4.43;;;2.92;;
29550;SDS011;16488;52.396;10.696;2023-03-01T13:29:53;4.80;;;3.58;;
29550;SDS011;16488;52.396;10.696;2023-03-01T13:37:36;5.82;;;3.13;;
29550;SDS011;16488;52.396;10.696;2023-03-01T13:40:07;4.22;;;2.78;;
29550;SDS011;16488;52.396;10.696;2023-03-01T13:42:49;7.00;;;3.08;;
29550;SDS011;16488;52.396;10.696;2023-03-01T13:47:45;6.15;;;3.00;;
29550;SDS011;16488;52.396;10.696;2023-03-01T13:50:49;5.35;;;3.47;;
29550;SDS011;16488;52.396;10.696;2023-03-01T13:53:07;7.45;;;3.63;;
29550;SDS011;16488;52.396;10.696;2023-03-01T13:55:46;4.97;;;2.95;;
29550;SDS011;16488;52.396;10.696;2023-03-01T14:00:45;7.03;;;3.08;;
29550;SDS011;16488;52.396;10.696;2023-03-01T14:03:13;5.30;;;2.75;;
29550;SDS011;16488;52.396;10.696;2023-03-01T14:05:40;4.90;;;2.70;;
29550;SDS011;16488;52.396;10.696;2023-03-01T14:08:20;6.50;;;3.00;;
29550;SDS011;16488;52.396;10.696;2023-03-01T14:18:42;10.70;;;5.68;;
29550;SDS011;16488;52.396;10.696;2023-03-01T14:21:12;5.38;;;3.35;;
29550;SDS011;16488;52.396;10.696;2023-03-01T14:23:39;6.05;;;3.47;;
29550;SDS011;16488;52.396;10.696;2023-03-01T14:26:07;4.05;;;2.95;;
29550;SDS011;16488;52.396;10.696;2023-03-01T14:28:34;7.10;;;3.60;;
29550;SDS011;16488;52.396;10.696;2023-03-01T14:31:04;6.03;;;3.28;;
29550;SDS011;16488;52.396;10.696;2023-03-01T14:33:54;4.55;;;3.00;;
29550;SDS011;16488;52.396;10.696;2023-03-01T14:36:25;7.32;;;3.08;;
29550;SDS011;16488;52.396;10.696;2023-03-01T14:38:51;10.05;;;3.00;;
29550;SDS011;16488;52.396;10.696;2023-03-01T14:44:06;3.88;;;2.65;;
29550;SDS011;16488;52.396;10.696;2023-03-01T14:46:35;5.38;;;2.80;;
29550;SDS011;16488;52.396;10.696;2023-03-01T14:49:05;3.65;;;2.80;;
29550;SDS011;16488;52.396;10.696;2023-03-01T14:51:38;6.40;;;2.85;;
29550;SDS011;16488;52.396;10.696;2023-03-01T14:54:10;4.40;;;2.53;;
29550;SDS011;16488;52.396;10.696;2023-03-01T14:56:44;4.30;;;3.00;;
29550;SDS011;16488;52.396;10.696;2023-03-01T14:59:11;6.10;;;2.42;;
29550;SDS011;16488;52.396;10.696;2023-03-01T15:01:37;7.20;;;2.85;;
29550;SDS011;16488;52.396;10.696;2023-03-01T15:04:04;3.70;;;2.20;;
29550;SDS011;16488;52.396;10.696;2023-03-01T15:08:57;3.55;;;2.30;;
29550;SDS011;16488;52.396;10.696;2023-03-01T15:11:25;4.38;;;2.33;;
29550;SDS011;16488;52.396;10.696;2023-03-01T15:13:52;5.40;;;2.50;;
29550;SDS011;16488;52.396;10.696;2023-03-01T15:18:46;12.77;;;3.13;;
29550;SDS011;16488;52.396;10.696;2023-03-01T15:21:20;7.25;;;2.80;;
29550;SDS011;16488;52.396;10.696;2023-03-01T15:23:49;4.78;;;2.47;;
29550;SDS011;16488;52.396;10.696;2023-03-01T15:26:28;4.60;;;2.58;;
29550;SDS011;16488;52.396;10.696;2023-03-01T15:28:56;6.10;;;2.65;;
29550;SDS011;16488;52.396;10.696;2023-03-01T15:31:37;7.60;;;3.53;;
29550;SDS011;16488;52.396;10.696;2023-03-01T15:36:40;7.53;;;3.90;;
29550;SDS011;16488;52.396;10.696;2023-03-01T15:39:28;6.05;;;3.50;;
29550;SDS011;16488;52.396;10.696;2023-03-01T15:41:56;7.07;;;3.90;;
29550;SDS011;16488;52.396;10.696;2023-03-01T15:44:29;3.53;;;2.75;;
29550;SDS011;16488;52.396;10.696;2023-03-01T15:46:55;6.03;;;4.00;;
29550;SDS011;16488;52.396;10.696;2023-03-01T15:52:00;5.95;;;2.80;;
29550;SDS011;16488;52.396;10.696;2023-03-01T15:54:26;4.68;;;2.70;;
29550;SDS011;16488;52.396;10.696;2023-03-01T15:56:53;10.88;;;2.72;;
29550;SDS011;16488;52.396;10.696;2023-03-01T15:59:19;6.03;;;3.17;;
29550;SDS011;16488;52.396;10.696;2023-03-01T16:01:47;4.28;;;2.90;;
29550;SDS011;16488;52.396;10.696;2023-03-01T16:04:14;5.30;;;2.90;;
29550;SDS011;16488;52.396;10.696;2023-03-01T16:06:45;8.07;;;3.13;;
29550;SDS011;16488;52.396;10.696;2023-03-01T16:09:12;4.07;;;2.70;;
29550;SDS011;16488;52.396;10.696;2023-03-01T16:14:05;5.35;;;2.60;;
29550;SDS011;16488;52.396;10.696;2023-03-01T16:16:31;3.95;;;2.65;;
29550;SDS011;16488;52.396;10.696;2023-03-01T16:18:57;5.07;;;2.92;;
29550;SDS011;16488;52.396;10.696;2023-03-01T16:21:24;3.45;;;2.30;;
29550;SDS011;16488;52.396;10.696;2023-03-01T16:23:50;8.65;;;2.75;;
29550;SDS011;16488;52.396;10.696;2023-03-01T16:26:17;6.03;;;3.80;;
29550;SDS011;16488;52.396;10.696;2023-03-01T16:31:09;8.43;;;3.95;;
29550;SDS011;16488;52.396;10.696;2023-03-01T16:33:36;6.60;;;3.05;;
29550;SDS011;16488;52.396;10.696;2023-03-01T16:36:08;5.57;;;3.13;;
29550;SDS011;16488;52.396;10.696;2023-03-01T16:38:35;7.75;;;4.07;;
29550;SDS011;16488;52.396;10.696;2023-03-01T16:41:01;5.32;;;3.53;;
29550;SDS011;16488;52.396;10.696;2023-03-01T16:43:27;6.07;;;3.53;;
29550;SDS011;16488;52.396;10.696;2023-03-01T16:45:53;9.20;;;3.65;;
29550;SDS011;16488;52.396;10.696;2023-03-01T16:48:19;12.38;;;3.83;;
29550;SDS011;16488;52.396;10.696;2023-03-01T16:50:45;7.43;;;4.00;;
29550;SDS011;16488;52.396;10.696;2023-03-01T16:53:11;7.63;;;3.90;;
29550;SDS011;16488;52.396;10.696;2023-03-01T16:55:38;10.55;;;4.50;;
29550;SDS011;16488;52.396;10.696;2023-03-01T16:58:10;8.52;;;5.05;;
29550;SDS011;16488;52.396;10.696;2023-03-01T17:00:36;11.45;;;5.28;;
29550;SDS011;16488;52.396;10.696;2023-03-01T17:03:02;8.80;;;5.20;;
29550;SDS011;16488;52.396;10.696;2023-03-01T17:05:28;7.85;;;4.90;;
29550;SDS011;16488;52.396;10.696;2023-03-01T17:07:54;10.00;;;4.57;;
29550;SDS011;16488;52.396;10.696;2023-03-01T17:10:21;10.23;;;5.32;;
29550;SDS011;16488;52.396;10.696;2023-03-01T17:12:50;11.02;;;5.40;;
29550;SDS011;16488;52.396;10.696;2023-03-01T17:15:16;9.95;;;5.82;;
29550;SDS011;16488;52.396;10.696;2023-03-01T17:17:42;14.00;;;6.63;;
29550;SDS011;16488;52.396;10.696;2023-03-01T17:22:34;14.32;;;7.32;;